Terminal Aerodrome Forecast
Issued by NWS

Home | Current Version | Previous Version | Text Only | Print | Product List | Glossary On
Versions: 1 2 3 4 5 6 7 8 9 10 11 12 13 14 15 16 17 18 19 20 21 22 23 24
000
FTUS44 KHGX 232340
TAFUTS
TAF
KUTS 232340Z 2400/2424 17015G27KT P6SM SKC
     FM240600 15012KT P6SM BKN015
     FM241000 18015KT P6SM OVC015
     FM241600 17015G23KT P6SM VCTS BKN030CB
     FM241800 18015G27KT P6SM -TSRA VCTS OVC030CB
      TEMPO 2420/2423 VRB30KT 3SM TSRA=

USA.gov is the U.S. government's official web portal to all federal, state and local government web resources and services.